createdAt,value
2019-03-09T00:00:26.730Z,0.00
2019-03-09T00:01:26.714Z,0.00
2019-03-09T00:02:26.686Z,0.00
2019-03-09T00:03:26.670Z,0.00
2019-03-09T00:04:26.637Z,0.00
2019-03-09T00:05:26.618Z,0.00
2019-03-09T00:06:26.592Z,0.00
2019-03-09T00:07:26.570Z,0.00
2019-03-09T00:08:26.551Z,0.00
2019-03-09T00:09:26.525Z,0.00
2019-03-09T00:10:26.509Z,0.00
2019-03-09T00:11:26.480Z,0.00
2019-03-09T00:12:26.461Z,0.00
2019-03-09T00:13:26.434Z,0.00
2019-03-09T00:14:26.419Z,0.00
2019-03-09T00:15:26.397Z,0.00
2019-03-09T00:16:26.368Z,0.00
2019-03-09T00:17:26.339Z,0.00
2019-03-09T00:18:26.318Z,0.00
2019-03-09T00:19:26.353Z,0.00
2019-03-09T00:20:26.279Z,0.00
2019-03-09T00:21:26.256Z,0.00
2019-03-09T00:22:26.227Z,0.00
2019-03-09T00:23:26.209Z,0.00
2019-03-09T00:24:26.181Z,0.00
2019-03-09T00:25:26.160Z,0.00
2019-03-09T00:26:26.141Z,0.00
2019-03-09T00:27:29.868Z,0.00
2019-03-09T00:28:26.089Z,0.00
2019-03-09T00:29:26.063Z,0.00
2019-03-09T00:30:26.049Z,0.00
2019-03-09T00:31:26.027Z,0.00
2019-03-09T00:32:26.006Z,0.00
2019-03-09T00:33:25.982Z,0.00
2019-03-09T00:34:25.959Z,0.00
2019-03-09T00:35:25.928Z,0.00
2019-03-09T00:36:25.914Z,0.00
2019-03-09T00:37:25.889Z,0.00
2019-03-09T00:38:25.867Z,0.00
2019-03-09T00:39:25.838Z,0.00
2019-03-09T00:40:25.816Z,0.00
2019-03-09T00:41:25.800Z,0.00
2019-03-09T00:42:25.772Z,0.00
2019-03-09T00:43:25.752Z,0.00
2019-03-09T00:44:25.736Z,0.00
2019-03-09T00:45:25.701Z,0.00
2019-03-09T00:46:25.679Z,0.00
2019-03-09T00:47:25.656Z,0.00
2019-03-09T00:48:25.634Z,0.00
2019-03-09T00:49:25.611Z,0.00
2019-03-09T00:50:25.593Z,0.00
2019-03-09T00:51:25.573Z,0.00
2019-03-09T00:52:25.541Z,0.00
2019-03-09T00:53:25.531Z,0.00
2019-03-09T00:54:25.518Z,0.00
2019-03-09T00:55:25.477Z,0.00
2019-03-09T00:56:25.458Z,0.00
2019-03-09T00:57:25.430Z,0.00
2019-03-09T00:58:25.414Z,0.00
2019-03-09T00:59:25.400Z,0.00
2019-03-09T01:00:25.373Z,0.00
2019-03-09T01:01:25.350Z,0.00
2019-03-09T01:02:25.314Z,0.00
2019-03-09T01:03:25.296Z,0.00
2019-03-09T01:04:25.276Z,0.00
2019-03-09T01:05:25.254Z,0.00
2019-03-09T01:06:25.229Z,0.00
2019-03-09T01:07:25.203Z,0.00
2019-03-09T01:08:25.181Z,0.00
2019-03-09T01:09:25.165Z,0.00
2019-03-09T01:10:25.143Z,0.00
2019-03-09T01:11:25.114Z,0.00
2019-03-09T01:12:25.096Z,0.00
2019-03-09T01:13:25.072Z,0.00
2019-03-09T01:14:25.062Z,0.00
2019-03-09T01:15:25.029Z,0.00
2019-03-09T01:16:25.008Z,0.00
2019-03-09T01:17:24.978Z,0.00
2019-03-09T01:18:24.981Z,0.00
2019-03-09T01:19:24.941Z,0.00
2019-03-09T01:20:24.911Z,0.00
2019-03-09T01:21:24.896Z,0.00
2019-03-09T01:22:24.870Z,0.00
2019-03-09T01:23:24.845Z,0.00
2019-03-09T01:24:24.826Z,0.00
2019-03-09T01:25:24.794Z,0.00
2019-03-09T01:26:24.783Z,0.00
2019-03-09T01:27:24.755Z,0.00
2019-03-09T01:28:24.748Z,0.00
2019-03-09T01:29:24.707Z,0.00
2019-03-09T01:30:24.688Z,0.00
2019-03-09T01:31:24.666Z,0.00
2019-03-09T01:32:24.645Z,0.00
2019-03-09T01:33:24.620Z,0.00
2019-03-09T01:34:24.595Z,0.00
2019-03-09T01:35:24.575Z,0.00
2019-03-09T01:36:24.549Z,0.00
2019-03-09T01:37:24.559Z,0.00
2019-03-09T01:38:24.514Z,0.00
2019-03-09T01:39:24.486Z,0.00
2019-03-09T01:40:24.460Z,0.00
2019-03-09T01:41:24.442Z,0.00
2019-03-09T01:42:24.424Z,0.00
2019-03-09T01:43:24.401Z,0.00
2019-03-09T01:44:24.372Z,0.00
2019-03-09T01:45:24.354Z,0.00
2019-03-09T01:46:24.328Z,0.00
2019-03-09T01:47:24.312Z,0.00
2019-03-09T01:48:24.280Z,0.00
2019-03-09T01:49:24.261Z,0.00
2019-03-09T01:50:24.238Z,0.00
2019-03-09T01:51:24.222Z,0.00
2019-03-09T01:52:24.191Z,0.00
2019-03-09T01:53:24.175Z,0.00
2019-03-09T01:54:24.145Z,0.00
2019-03-09T01:55:24.129Z,0.00
2019-03-09T01:56:24.100Z,0.00
2019-03-09T01:57:24.077Z,0.00
2019-03-09T01:58:24.095Z,0.00
2019-03-09T01:59:24.035Z,0.00
2019-03-09T02:00:24.010Z,0.00
2019-03-09T02:01:23.988Z,0.00
2019-03-09T02:02:23.966Z,0.00
2019-03-09T02:03:23.944Z,0.00
2019-03-09T02:04:23.924Z,0.00
2019-03-09T02:05:23.905Z,0.00
2019-03-09T02:06:23.882Z,0.00
2019-03-09T02:07:23.854Z,0.00
2019-03-09T02:08:23.830Z,0.00
2019-03-09T02:09:23.807Z,0.00
2019-03-09T02:10:23.785Z,0.00
2019-03-09T02:11:23.766Z,0.00
2019-03-09T02:12:23.749Z,0.00
2019-03-09T02:13:23.722Z,0.00
2019-03-09T02:14:23.738Z,0.00
2019-03-09T02:15:23.701Z,0.00
2019-03-09T02:16:23.648Z,0.00
2019-03-09T02:17:23.627Z,0.00
2019-03-09T02:18:23.604Z,0.00
2019-03-09T02:19:23.588Z,0.00
2019-03-09T02:20:23.557Z,0.00
2019-03-09T02:21:23.536Z,0.00
2019-03-09T02:22:23.522Z,0.00
2019-03-09T02:23:23.496Z,0.00
2019-03-09T02:24:23.467Z,0.00
2019-03-09T02:25:23.451Z,0.00
2019-03-09T02:26:23.430Z,0.00
2019-03-09T02:27:23.403Z,0.00
2019-03-09T02:28:23.377Z,0.00
2019-03-09T02:29:23.356Z,0.00
2019-03-09T02:30:23.334Z,0.00
2019-03-09T02:31:23.318Z,0.00
2019-03-09T02:32:23.295Z,0.00
2019-03-09T02:33:23.270Z,0.00
2019-03-09T02:34:23.248Z,0.00
2019-03-09T02:35:23.228Z,0.00
2019-03-09T02:36:23.203Z,0.00
2019-03-09T02:37:23.194Z,0.00
2019-03-09T02:38:23.174Z,0.00
2019-03-09T02:39:23.133Z,0.00
2019-03-09T02:40:23.343Z,0.00
2019-03-09T02:41:23.091Z,0.00
2019-03-09T02:42:23.069Z,0.00
2019-03-09T02:43:23.047Z,0.00
2019-03-09T02:44:23.020Z,0.00
2019-03-09T02:45:23.032Z,0.00
2019-03-09T02:46:22.975Z,0.00
2019-03-09T02:47:23.002Z,0.00
2019-03-09T02:48:22.933Z,0.00
2019-03-09T02:49:22.911Z,0.00
2019-03-09T02:50:22.892Z,0.00
2019-03-09T02:51:22.861Z,0.00
2019-03-09T02:52:22.849Z,0.00
2019-03-09T02:53:22.818Z,0.00
2019-03-09T02:54:22.795Z,0.00
2019-03-09T02:55:22.782Z,0.00
2019-03-09T02:56:22.762Z,0.00
2019-03-09T02:57:22.728Z,0.00
2019-03-09T02:58:22.710Z,0.00
2019-03-09T02:59:22.683Z,0.00
2019-03-09T03:00:22.674Z,0.00
2019-03-09T03:01:22.668Z,0.00
2019-03-09T03:02:22.633Z,0.00
2019-03-09T03:03:22.598Z,0.00
2019-03-09T03:04:22.586Z,0.00
2019-03-09T03:05:22.547Z,0.00
2019-03-09T03:06:22.526Z,0.00
2019-03-09T03:07:22.510Z,0.00
2019-03-09T03:08:22.483Z,0.00
2019-03-09T03:09:22.464Z,0.00
2019-03-09T03:10:22.446Z,0.00
2019-03-09T03:11:22.414Z,0.00
2019-03-09T03:12:22.391Z,0.00
2019-03-09T03:13:22.371Z,0.00
2019-03-09T03:14:22.346Z,0.00
2019-03-09T03:15:22.322Z,0.00
2019-03-09T03:16:22.308Z,0.00
2019-03-09T03:17:22.283Z,0.00
2019-03-09T03:18:22.258Z,0.00
2019-03-09T03:19:22.237Z,0.00
2019-03-09T03:20:22.214Z,0.00
2019-03-09T03:21:22.196Z,0.00
2019-03-09T03:22:22.169Z,0.00
2019-03-09T03:23:22.147Z,0.00
2019-03-09T03:24:22.118Z,0.00
2019-03-09T03:25:22.100Z,0.00
2019-03-09T03:26:22.077Z,0.00
2019-03-09T03:27:22.049Z,0.00
2019-03-09T03:28:22.048Z,0.00
2019-03-09T03:29:22.008Z,0.00
2019-03-09T03:30:21.994Z,0.00
2019-03-09T03:31:21.961Z,0.00
2019-03-09T03:32:21.945Z,0.00
2019-03-09T03:33:21.916Z,0.00
2019-03-09T03:34:21.924Z,0.00
2019-03-09T03:35:21.883Z,0.00
2019-03-09T03:36:21.846Z,0.00
2019-03-09T03:37:21.829Z,0.00
2019-03-09T03:38:21.805Z,0.00
2019-03-09T03:39:21.786Z,0.00
2019-03-09T03:40:21.753Z,0.00
2019-03-09T03:41:21.743Z,0.00
2019-03-09T03:42:21.707Z,0.00
2019-03-09T03:43:21.689Z,0.00
2019-03-09T03:44:21.661Z,0.00
2019-03-09T03:45:21.637Z,0.00
2019-03-09T03:46:21.617Z,0.00
2019-03-09T03:47:21.610Z,0.00
2019-03-09T03:48:21.576Z,0.00
2019-03-09T03:49:21.565Z,0.00
2019-03-09T03:50:21.524Z,0.00
2019-03-09T03:51:21.498Z,0.00
2019-03-09T03:52:21.476Z,0.00
2019-03-09T03:53:21.455Z,0.00
2019-03-09T03:54:21.443Z,0.00
2019-03-09T03:55:21.415Z,0.00
2019-03-09T03:56:21.389Z,0.00
2019-03-09T03:57:21.362Z,0.00
2019-03-09T03:58:21.342Z,0.00
2019-03-09T03:59:21.323Z,0.00
2019-03-09T04:00:21.297Z,0.00
2019-03-09T04:01:21.274Z,0.00
2019-03-09T04:02:21.255Z,0.00
2019-03-09T04:03:21.232Z,0.00
2019-03-09T04:04:21.201Z,0.00
2019-03-09T04:05:21.176Z,0.00
2019-03-09T04:06:21.167Z,0.00
2019-03-09T04:07:21.133Z,0.00
2019-03-09T04:08:21.113Z,0.00
2019-03-09T04:09:21.084Z,0.00
2019-03-09T04:10:21.063Z,0.00
2019-03-09T04:11:21.040Z,0.00
2019-03-09T04:12:21.021Z,0.00
2019-03-09T04:13:20.992Z,0.00
2019-03-09T04:14:20.995Z,0.00
2019-03-09T04:15:20.948Z,0.00
2019-03-09T04:16:20.954Z,0.00
2019-03-09T04:17:20.920Z,0.00
2019-03-09T04:18:20.877Z,0.00
2019-03-09T04:19:20.861Z,0.00
2019-03-09T04:20:20.834Z,0.00
2019-03-09T04:21:20.812Z,0.00
2019-03-09T04:22:20.787Z,0.00
2019-03-09T04:23:20.765Z,0.00
2019-03-09T04:24:20.739Z,0.00
2019-03-09T04:25:20.713Z,0.00
2019-03-09T04:26:20.727Z,0.00
2019-03-09T04:27:20.665Z,0.00
2019-03-09T04:28:20.643Z,0.00
2019-03-09T04:29:20.627Z,0.00
2019-03-09T04:30:20.599Z,0.00
2019-03-09T04:31:20.573Z,0.00
2019-03-09T04:32:20.552Z,0.00
2019-03-09T04:33:20.527Z,0.00
2019-03-09T04:34:20.509Z,0.00
2019-03-09T04:35:20.481Z,0.00
2019-03-09T04:36:20.468Z,0.00
2019-03-09T04:37:20.437Z,0.00
2019-03-09T04:38:20.414Z,0.00
2019-03-09T04:39:20.389Z,0.00
2019-03-09T04:40:20.390Z,0.00
2019-03-09T04:41:20.345Z,0.00
2019-03-09T04:42:20.319Z,0.00
2019-03-09T04:43:20.297Z,0.00
2019-03-09T04:44:20.270Z,0.00
2019-03-09T04:45:20.246Z,0.00
2019-03-09T04:46:20.231Z,0.00
2019-03-09T04:47:20.201Z,0.00
2019-03-09T04:48:20.195Z,0.00
2019-03-09T04:49:20.154Z,0.00
2019-03-09T04:50:20.139Z,0.00
2019-03-09T04:51:20.109Z,0.00
2019-03-09T04:52:20.083Z,0.00
2019-03-09T04:53:20.083Z,0.00
2019-03-09T04:54:20.037Z,0.00
2019-03-09T04:55:20.014Z,0.00
2019-03-09T04:56:19.992Z,0.00
2019-03-09T04:57:19.972Z,0.00
2019-03-09T04:58:19.947Z,0.00
2019-03-09T04:59:19.921Z,0.00
2019-03-09T05:00:19.899Z,0.00
2019-03-09T05:01:19.882Z,0.00
2019-03-09T05:02:19.854Z,0.00
2019-03-09T05:03:19.837Z,0.00
2019-03-09T05:04:19.807Z,0.00
2019-03-09T05:05:19.783Z,0.00
2019-03-09T05:06:19.760Z,0.00
2019-03-09T05:07:19.738Z,0.00
2019-03-09T05:08:19.712Z,0.00
2019-03-09T05:09:19.693Z,0.00
2019-03-09T05:10:19.677Z,0.00
2019-03-09T05:11:19.644Z,0.00
2019-03-09T05:12:19.623Z,0.00
2019-03-09T05:13:19.607Z,0.00
2019-03-09T05:14:19.580Z,0.00
2019-03-09T05:15:19.551Z,0.00
2019-03-09T05:16:19.529Z,0.00
2019-03-09T05:17:19.506Z,0.00
2019-03-09T05:18:19.484Z,0.00
2019-03-09T05:19:19.465Z,0.00
2019-03-09T05:20:19.444Z,0.00
2019-03-09T05:21:19.413Z,0.00
2019-03-09T05:22:19.397Z,0.00
2019-03-09T05:23:19.375Z,0.00
2019-03-09T05:24:19.346Z,0.00
2019-03-09T05:25:19.322Z,0.00
2019-03-09T05:26:19.298Z,0.00
2019-03-09T05:27:19.276Z,0.00
2019-03-09T05:28:19.253Z,0.00
2019-03-09T05:29:19.230Z,0.00
2019-03-09T05:30:19.257Z,0.00
2019-03-09T05:31:19.182Z,0.00
2019-03-09T05:32:19.160Z,0.00
2019-03-09T05:33:19.140Z,0.00
2019-03-09T05:34:19.115Z,0.00
2019-03-09T05:35:19.115Z,0.00
2019-03-09T05:36:19.067Z,0.00
2019-03-09T05:37:19.047Z,0.00
2019-03-09T05:38:19.023Z,0.00
2019-03-09T05:39:19.007Z,0.00
2019-03-09T05:40:18.977Z,0.00
2019-03-09T05:41:18.959Z,0.00
2019-03-09T05:42:18.929Z,0.00
2019-03-09T05:43:18.916Z,0.00
2019-03-09T05:44:18.883Z,0.00
2019-03-09T05:45:18.859Z,0.00
2019-03-09T05:46:18.838Z,0.00
2019-03-09T05:47:18.819Z,0.00
2019-03-09T05:48:18.799Z,0.00
2019-03-09T05:49:18.774Z,0.00
2019-03-09T05:50:18.774Z,0.00
2019-03-09T05:51:18.722Z,0.00
2019-03-09T05:52:18.710Z,0.00
2019-03-09T05:53:18.678Z,0.00
2019-03-09T05:54:18.659Z,0.00
2019-03-09T05:55:18.634Z,0.00
2019-03-09T05:56:18.608Z,0.00
2019-03-09T05:57:18.608Z,5.63
2019-03-09T05:58:18.563Z,5.63
2019-03-09T05:59:18.544Z,5.63
2019-03-09T06:00:18.516Z,5.63
2019-03-09T06:01:18.525Z,5.63
2019-03-09T06:02:18.474Z,0.00
2019-03-09T06:03:18.448Z,0.00
2019-03-09T06:04:18.426Z,0.00
2019-03-09T06:05:18.486Z,0.00
2019-03-09T06:06:18.408Z,0.00
2019-03-09T06:07:18.362Z,0.00
2019-03-09T06:08:18.334Z,5.63
2019-03-09T06:09:18.324Z,5.63
2019-03-09T06:10:18.292Z,5.63
2019-03-09T06:11:18.266Z,5.63
2019-03-09T06:12:18.246Z,5.63
2019-03-09T06:13:18.219Z,5.63
2019-03-09T06:14:18.202Z,5.63
2019-03-09T06:15:18.177Z,5.63
2019-03-09T06:16:18.152Z,5.63
2019-03-09T06:17:18.129Z,5.63
2019-03-09T06:18:18.113Z,11.25
2019-03-09T06:19:18.091Z,11.25
2019-03-09T06:20:18.065Z,16.88
2019-03-09T06:21:18.045Z,22.50
2019-03-09T06:22:18.021Z,16.88
2019-03-09T06:23:17.995Z,16.88
2019-03-09T06:24:17.970Z,16.88
2019-03-09T06:25:17.954Z,16.88
2019-03-09T06:26:17.933Z,11.25
2019-03-09T06:27:17.922Z,11.25
2019-03-09T06:28:17.885Z,16.88
2019-03-09T06:29:17.861Z,22.50
2019-03-09T06:30:17.834Z,28.13
2019-03-09T06:31:17.818Z,22.50
2019-03-09T06:32:17.793Z,22.50
2019-03-09T06:33:17.777Z,11.25
2019-03-09T06:34:17.741Z,11.25
2019-03-09T06:35:17.751Z,11.25
2019-03-09T06:36:17.701Z,11.25
2019-03-09T06:37:17.673Z,11.25
2019-03-09T06:38:17.653Z,5.63
2019-03-09T06:39:17.627Z,11.25
2019-03-09T06:40:17.614Z,16.88
2019-03-09T06:41:17.583Z,22.50
2019-03-09T06:42:17.561Z,33.75
2019-03-09T06:43:17.538Z,45.00
2019-03-09T06:44:17.515Z,45.00
2019-03-09T06:45:17.493Z,28.13
2019-03-09T06:46:17.471Z,33.75
2019-03-09T06:47:17.455Z,39.38
2019-03-09T06:48:17.434Z,45.00
2019-03-09T06:49:17.403Z,39.38
2019-03-09T06:50:17.381Z,39.38
2019-03-09T06:51:17.357Z,56.25
2019-03-09T06:52:17.332Z,50.63
2019-03-09T06:53:17.315Z,39.38
2019-03-09T06:54:17.303Z,50.63
2019-03-09T06:55:17.273Z,50.63
2019-03-09T06:56:17.247Z,56.25
2019-03-09T06:57:17.219Z,61.88
2019-03-09T06:58:17.200Z,56.25
2019-03-09T06:59:17.181Z,61.88
2019-03-09T07:00:17.152Z,56.25
2019-03-09T07:01:17.126Z,50.63
2019-03-09T07:02:17.106Z,45.00
2019-03-09T07:03:17.091Z,50.63
2019-03-09T07:04:17.065Z,39.38
2019-03-09T07:05:17.040Z,50.63
2019-03-09T07:06:17.016Z,61.88
2019-03-09T07:07:16.992Z,61.88
2019-03-09T07:08:16.979Z,61.88
2019-03-09T07:09:16.946Z,84.38
2019-03-09T07:10:16.931Z,67.50
2019-03-09T07:11:16.907Z,67.50
2019-03-09T07:12:16.879Z,84.38
2019-03-09T07:13:16.855Z,90.00
2019-03-09T07:14:16.835Z,84.38
2019-03-09T07:15:16.826Z,78.75
2019-03-09T07:16:16.787Z,78.75
2019-03-09T07:17:16.764Z,84.38
2019-03-09T07:18:16.743Z,101.25
2019-03-09T07:19:16.722Z,84.38
2019-03-09T07:20:16.698Z,101.25
2019-03-09T07:21:16.674Z,101.25
2019-03-09T07:22:16.661Z,90.00
2019-03-09T07:23:16.632Z,95.63
2019-03-09T07:24:16.617Z,123.75
2019-03-09T07:25:16.584Z,112.50
2019-03-09T07:26:16.562Z,101.25
2019-03-09T07:27:16.549Z,106.88
2019-03-09T07:28:16.520Z,101.25
2019-03-09T07:29:16.497Z,118.13
2019-03-09T07:30:16.475Z,135.00
2019-03-09T07:31:16.462Z,140.63
2019-03-09T07:32:16.425Z,140.63
2019-03-09T07:33:16.416Z,146.25
2019-03-09T07:34:16.380Z,151.88
2019-03-09T07:35:16.361Z,106.88
2019-03-09T07:36:16.339Z,106.88
2019-03-09T07:37:16.313Z,123.75
2019-03-09T07:38:16.291Z,135.00
2019-03-09T07:39:16.269Z,163.13
2019-03-09T07:40:16.298Z,157.50
2019-03-09T07:41:16.231Z,196.88
2019-03-09T07:42:16.214Z,213.75
2019-03-09T07:43:16.189Z,191.25
2019-03-09T07:44:16.160Z,157.50
2019-03-09T07:45:16.142Z,163.13
2019-03-09T07:46:16.118Z,180.00
2019-03-09T07:47:16.093Z,185.63
2019-03-09T07:48:16.064Z,202.50
2019-03-09T07:49:16.049Z,191.25
2019-03-09T07:50:16.033Z,213.75
2019-03-09T07:51:16.004Z,196.88
2019-03-09T07:52:15.981Z,168.75
2019-03-09T07:53:15.961Z,151.88
2019-03-09T07:54:15.936Z,140.63
2019-03-09T07:55:15.922Z,118.13
2019-03-09T07:56:15.898Z,118.13
2019-03-09T07:57:15.892Z,146.25
2019-03-09T07:58:15.854Z,174.38
2019-03-09T07:59:15.830Z,247.50
2019-03-09T08:00:15.803Z,320.63
2019-03-09T08:01:15.807Z,315.00
2019-03-09T08:02:15.760Z,298.13
2019-03-09T08:03:15.772Z,309.38
2019-03-09T08:04:15.719Z,281.25
2019-03-09T08:05:15.697Z,236.25
2019-03-09T08:06:15.681Z,275.63
2019-03-09T08:07:15.655Z,253.13
2019-03-09T08:08:15.627Z,264.38
2019-03-09T08:09:15.612Z,180.00
2019-03-09T08:10:15.599Z,185.63
2019-03-09T08:11:15.564Z,185.63
2019-03-09T08:12:15.549Z,185.63
2019-03-09T08:13:15.543Z,202.50
2019-03-09T08:14:15.514Z,191.25
2019-03-09T08:15:15.480Z,185.63
2019-03-09T08:16:15.458Z,236.25
2019-03-09T08:17:15.428Z,275.63
2019-03-09T08:18:15.414Z,320.63
2019-03-09T08:19:15.390Z,343.13
2019-03-09T08:20:15.364Z,337.50
2019-03-09T08:21:15.351Z,360.00
2019-03-09T08:22:15.322Z,360.00
2019-03-09T08:23:15.334Z,354.38
2019-03-09T08:24:15.284Z,343.13
2019-03-09T08:25:15.259Z,376.88
2019-03-09T08:26:15.238Z,444.38
2019-03-09T08:27:15.240Z,455.63
2019-03-09T08:28:16.429Z,433.13
2019-03-09T08:29:15.173Z,461.25
2019-03-09T08:30:15.151Z,489.38
2019-03-09T08:31:15.132Z,495.00
2019-03-09T08:32:15.138Z,444.38
2019-03-09T08:33:15.093Z,455.63
2019-03-09T08:34:15.081Z,455.63
2019-03-09T08:35:15.051Z,433.13
2019-03-09T08:36:15.032Z,438.75
2019-03-09T08:37:15.006Z,410.63
2019-03-09T08:38:14.990Z,421.88
2019-03-09T08:39:14.968Z,410.63
2019-03-09T08:40:14.953Z,405.00
2019-03-09T08:41:14.928Z,438.75
2019-03-09T08:42:14.900Z,489.38
2019-03-09T08:43:14.887Z,461.25
2019-03-09T08:44:14.901Z,523.13
2019-03-09T08:45:14.853Z,517.50
2019-03-09T08:46:14.820Z,545.63
2019-03-09T08:47:14.842Z,579.38
2019-03-09T08:48:14.794Z,573.75
2019-03-09T08:49:14.759Z,568.13
2019-03-09T08:50:14.764Z,590.63
2019-03-09T08:51:14.724Z,635.63
2019-03-09T08:52:14.733Z,675.00
2019-03-09T08:53:14.709Z,618.75
2019-03-09T08:54:14.676Z,601.88
2019-03-09T08:55:14.635Z,641.25
2019-03-09T08:56:14.657Z,675.00
2019-03-09T08:57:14.622Z,596.25
2019-03-09T08:58:14.583Z,500.63
2019-03-09T08:59:14.556Z,416.25
2019-03-09T09:00:14.582Z,427.50
2019-03-09T09:01:14.547Z,331.88
2019-03-09T09:02:14.525Z,320.63
2019-03-09T09:03:14.477Z,343.13
2019-03-09T09:04:14.454Z,354.38
2019-03-09T09:05:14.435Z,388.13
2019-03-09T09:06:14.473Z,315.00
2019-03-09T09:07:14.396Z,382.50
2019-03-09T09:08:14.378Z,427.50
2019-03-09T09:09:14.361Z,444.38
2019-03-09T09:10:14.338Z,410.63
2019-03-09T09:11:14.323Z,348.75
2019-03-09T09:12:14.295Z,337.50
2019-03-09T09:13:14.278Z,331.88
2019-03-09T09:14:14.256Z,354.38
2019-03-09T09:15:15.057Z,348.75
2019-03-09T09:16:14.217Z,343.13
2019-03-09T09:17:14.194Z,371.25
2019-03-09T09:18:14.175Z,360.00
2019-03-09T09:19:14.161Z,365.63
2019-03-09T09:20:14.130Z,382.50
2019-03-09T09:21:14.133Z,399.38
2019-03-09T09:22:14.091Z,388.13
2019-03-09T09:23:14.082Z,315.00
2019-03-09T09:24:14.057Z,371.25
2019-03-09T09:25:14.032Z,410.63
2019-03-09T09:26:14.017Z,354.38
2019-03-09T09:27:13.998Z,354.38
2019-03-09T09:28:13.976Z,360.00
2019-03-09T09:29:13.949Z,416.25
2019-03-09T09:30:13.930Z,489.38
2019-03-09T09:31:13.911Z,489.38
2019-03-09T09:32:13.894Z,506.25
2019-03-09T09:33:13.884Z,562.50
2019-03-09T09:34:13.851Z,472.50
2019-03-09T09:35:13.828Z,421.88
2019-03-09T09:36:13.815Z,360.00
2019-03-09T09:37:13.793Z,292.50
2019-03-09T09:38:13.778Z,382.50
2019-03-09T09:39:13.748Z,455.63
2019-03-09T09:40:13.739Z,382.50
2019-03-09T09:41:13.703Z,270.00
2019-03-09T09:42:13.694Z,348.75
2019-03-09T09:43:13.672Z,298.13
2019-03-09T09:44:13.646Z,281.25
2019-03-09T09:45:13.627Z,275.63
2019-03-09T09:46:13.621Z,264.38
2019-03-09T09:47:13.585Z,427.50
2019-03-09T09:48:13.569Z,500.63
2019-03-09T09:49:13.544Z,483.75
2019-03-09T09:50:13.532Z,382.50
2019-03-09T09:51:13.520Z,444.38
2019-03-09T09:52:13.487Z,433.13
2019-03-09T09:53:13.467Z,421.88
2019-03-09T09:54:13.445Z,388.13
2019-03-09T09:55:13.426Z,410.63
2019-03-09T09:56:13.411Z,495.00
2019-03-09T09:57:13.387Z,371.25
2019-03-09T09:58:13.377Z,354.38
2019-03-09T09:59:14.514Z,326.25
2019-03-09T10:00:13.357Z,365.63
2019-03-09T10:01:13.309Z,405.00
2019-03-09T10:02:13.288Z,315.00
2019-03-09T10:03:13.260Z,258.75
2019-03-09T10:04:13.241Z,298.13
2019-03-09T10:05:13.219Z,360.00
2019-03-09T10:06:13.200Z,343.13
2019-03-09T10:07:13.187Z,258.75
2019-03-09T10:08:13.166Z,236.25
2019-03-09T10:09:13.163Z,275.63
2019-03-09T10:10:13.127Z,343.13
2019-03-09T10:11:13.100Z,320.63
2019-03-09T10:12:13.081Z,247.50
2019-03-09T10:13:13.062Z,264.38
2019-03-09T10:14:13.047Z,253.13
2019-03-09T10:15:13.016Z,202.50
2019-03-09T10:16:13.004Z,163.13
2019-03-09T10:17:12.984Z,180.00
2019-03-09T10:18:12.958Z,219.38
2019-03-09T10:19:12.943Z,225.00
2019-03-09T10:20:12.915Z,225.00
2019-03-09T10:21:12.912Z,348.75
2019-03-09T10:22:12.872Z,511.88
2019-03-09T10:23:12.852Z,540.00
2019-03-09T10:24:12.838Z,686.25
2019-03-09T10:25:12.812Z,562.50
2019-03-09T10:26:12.791Z,444.38
2019-03-09T10:27:12.771Z,416.25
2019-03-09T10:28:12.748Z,472.50
2019-03-09T10:29:12.761Z,635.63
2019-03-09T10:30:12.710Z,680.63
2019-03-09T10:31:12.687Z,607.50
2019-03-09T10:32:12.672Z,540.00
2019-03-09T10:33:12.652Z,680.63
2019-03-09T10:34:12.632Z,725.63
2019-03-09T10:35:12.617Z,742.50
2019-03-09T10:36:12.595Z,759.38
2019-03-09T10:37:12.575Z,770.63
2019-03-09T10:38:12.546Z,765.00
2019-03-09T10:39:12.533Z,736.88
2019-03-09T10:40:12.514Z,585.00
2019-03-09T10:41:12.488Z,613.13
2019-03-09T10:42:12.469Z,714.38
2019-03-09T10:43:12.453Z,585.00
2019-03-09T10:44:12.436Z,596.25
2019-03-09T10:45:12.410Z,517.50
2019-03-09T10:46:12.397Z,742.50
2019-03-09T10:47:12.372Z,669.38
2019-03-09T10:48:12.375Z,607.50
2019-03-09T10:49:12.333Z,658.13
2019-03-09T10:50:12.314Z,781.88
2019-03-09T10:51:12.302Z,781.88
2019-03-09T10:52:12.276Z,697.50
2019-03-09T10:53:12.260Z,534.38
2019-03-09T10:54:12.237Z,562.50
2019-03-09T10:55:12.243Z,652.50
2019-03-09T10:56:12.206Z,646.88
2019-03-09T10:57:12.186Z,646.88
2019-03-09T10:58:12.168Z,680.63
2019-03-09T10:59:12.148Z,742.50
2019-03-09T11:00:12.125Z,652.50
2019-03-09T11:01:12.114Z,596.25
2019-03-09T11:02:12.087Z,517.50
2019-03-09T11:03:12.068Z,601.88
2019-03-09T11:04:12.051Z,545.63
2019-03-09T11:05:12.048Z,545.63
2019-03-09T11:06:12.016Z,500.63
2019-03-09T11:07:11.990Z,472.50
2019-03-09T11:08:11.987Z,450.00
2019-03-09T11:09:11.952Z,511.88
2019-03-09T11:10:11.943Z,551.25
2019-03-09T11:11:11.918Z,607.50
2019-03-09T11:12:11.915Z,630.00
2019-03-09T11:13:11.879Z,658.13
2019-03-09T11:14:11.861Z,703.13
2019-03-09T11:15:11.893Z,658.13
2019-03-09T11:16:11.821Z,686.25
2019-03-09T11:17:11.801Z,658.13
2019-03-09T11:18:11.785Z,708.75
2019-03-09T11:19:11.772Z,697.50
2019-03-09T11:20:11.747Z,720.00
2019-03-09T11:21:11.727Z,714.38
2019-03-09T11:22:11.715Z,691.88
2019-03-09T11:23:11.696Z,720.00
2019-03-09T11:24:11.677Z,641.25
2019-03-09T11:25:11.657Z,630.00
2019-03-09T11:26:11.680Z,680.63
2019-03-09T11:27:11.628Z,663.75
2019-03-09T11:28:11.594Z,663.75
2019-03-09T11:29:11.600Z,691.88
2019-03-09T11:30:11.559Z,618.75
2019-03-09T11:31:11.546Z,540.00
2019-03-09T11:32:11.521Z,607.50
2019-03-09T11:33:11.509Z,652.50
2019-03-09T11:34:11.496Z,663.75
2019-03-09T11:35:11.474Z,697.50
2019-03-09T11:36:11.454Z,613.13
2019-03-09T11:37:11.438Z,573.75
2019-03-09T11:38:11.413Z,562.50
2019-03-09T11:39:11.396Z,652.50
2019-03-09T11:40:11.378Z,669.38
2019-03-09T11:41:18.839Z,596.25
2019-03-09T11:42:11.336Z,585.00
2019-03-09T11:43:11.317Z,562.50
2019-03-09T11:44:11.304Z,545.63
2019-03-09T11:45:11.295Z,551.25
2019-03-09T11:46:11.263Z,568.13
2019-03-09T11:47:11.243Z,579.38
2019-03-09T11:48:11.224Z,556.88
2019-03-09T11:49:11.205Z,517.50
2019-03-09T11:50:11.199Z,511.88
2019-03-09T11:51:11.171Z,483.75
2019-03-09T11:52:19.542Z,466.88
2019-03-09T11:53:11.132Z,461.25
2019-03-09T11:54:11.112Z,466.88
2019-03-09T11:55:11.093Z,466.88
2019-03-09T11:56:11.080Z,455.63
2019-03-09T11:57:11.061Z,472.50
2019-03-09T11:58:11.040Z,472.50
2019-03-09T11:59:11.028Z,466.88
2019-03-09T12:00:11.008Z,483.75
2019-03-09T12:01:10.989Z,483.75
2019-03-09T12:02:10.973Z,483.75
2019-03-09T12:03:10.947Z,500.63
2019-03-09T12:04:10.931Z,495.00
2019-03-09T12:05:10.905Z,421.88
2019-03-09T12:06:10.894Z,371.25
2019-03-09T12:07:10.876Z,343.13
2019-03-09T12:08:10.851Z,241.88
2019-03-09T12:09:10.879Z,253.13
2019-03-09T12:10:10.820Z,264.38
2019-03-09T12:11:10.796Z,191.25
2019-03-09T12:12:10.778Z,225.00
2019-03-09T12:13:10.756Z,208.13
2019-03-09T12:14:10.740Z,185.63
2019-03-09T12:15:10.725Z,185.63
2019-03-09T12:16:10.698Z,157.50
2019-03-09T12:17:12.964Z,168.75
2019-03-09T12:18:10.671Z,247.50
2019-03-09T12:19:10.639Z,320.63
2019-03-09T12:20:10.618Z,348.75
2019-03-09T12:21:10.597Z,354.38
2019-03-09T12:22:10.587Z,337.50
2019-03-09T12:23:10.562Z,326.25
2019-03-09T12:24:16.744Z,320.63
2019-03-09T12:25:10.521Z,281.25
2019-03-09T12:26:10.504Z,241.88
2019-03-09T12:27:10.490Z,196.88
2019-03-09T12:28:10.460Z,225.00
2019-03-09T12:29:10.439Z,219.38
2019-03-09T12:30:10.426Z,180.00
2019-03-09T12:31:10.400Z,180.00
2019-03-09T12:32:10.384Z,208.13
2019-03-09T12:33:10.362Z,219.38
2019-03-09T12:34:10.339Z,202.50
2019-03-09T12:35:10.339Z,191.25
2019-03-09T12:36:10.302Z,163.13
2019-03-09T12:37:10.282Z,191.25
2019-03-09T12:38:10.259Z,163.13
2019-03-09T12:39:10.257Z,157.50
2019-03-09T12:40:10.220Z,146.25
2019-03-09T12:41:10.198Z,174.38
2019-03-09T12:42:10.182Z,168.75
2019-03-09T12:43:10.160Z,174.38
2019-03-09T12:44:10.505Z,174.38
2019-03-09T12:45:10.118Z,146.25
2019-03-09T12:46:10.106Z,135.00
2019-03-09T12:47:10.083Z,151.88
2019-03-09T12:48:10.057Z,151.88
2019-03-09T12:49:10.043Z,180.00
2019-03-09T12:50:10.018Z,213.75
2019-03-09T12:51:09.995Z,253.13
2019-03-09T12:52:09.979Z,281.25
2019-03-09T12:53:09.953Z,331.88
2019-03-09T12:54:09.935Z,371.25